sensor_id;sensor_type;location;lat;lon;timestamp;temperature;humidity
11221;DHT22;8517;53.546;10.104;2023-08-12T00:01:16;23.60;99.90
11221;DHT22;8517;53.546;10.104;2023-08-12T00:03:46;23.60;99.90
11221;DHT22;8517;53.546;10.104;2023-08-12T00:06:13;23.60;99.90
11221;DHT22;8517;53.546;10.104;2023-08-12T00:08:40;23.60;99.90
11221;DHT22;8517;53.546;10.104;2023-08-12T00:11:06;23.60;99.90
11221;DHT22;8517;53.546;10.104;2023-08-12T00:13:34;23.60;99.90
11221;DHT22;8517;53.546;10.104;2023-08-12T00:16:01;23.60;99.90
11221;DHT22;8517;53.546;10.104;2023-08-12T00:18:28;23.60;99.90
11221;DHT22;8517;53.546;10.104;2023-08-12T00:20:55;23.50;99.90
11221;DHT22;8517;53.546;10.104;2023-08-12T00:23:23;23.50;99.90
11221;DHT22;8517;53.546;10.104;2023-08-12T00:25:49;23.50;99.90
11221;DHT22;8517;53.546;10.104;2023-08-12T00:28:16;23.40;99.90
11221;DHT22;8517;53.546;10.104;2023-08-12T00:30:47;23.40;99.90
11221;DHT22;8517;53.546;10.104;2023-08-12T00:33:14;23.40;99.90
11221;DHT22;8517;53.546;10.104;2023-08-12T00:35:40;23.40;99.90
11221;DHT22;8517;53.546;10.104;2023-08-12T00:38:07;23.40;99.90
11221;DHT22;8517;53.546;10.104;2023-08-12T00:40:34;23.30;99.90
11221;DHT22;8517;53.546;10.104;2023-08-12T00:43:01;23.40;99.90
11221;DHT22;8517;53.546;10.104;2023-08-12T00:45:29;23.40;99.90
11221;DHT22;8517;53.546;10.104;2023-08-12T00:47:58;23.30;99.90
11221;DHT22;8517;53.546;10.104;2023-08-12T00:50:25;23.30;99.90
11221;DHT22;8517;53.546;10.104;2023-08-12T00:52:52;23.30;99.90
11221;DHT22;8517;53.546;10.104;2023-08-12T00:55:19;23.30;99.90
11221;DHT22;8517;53.546;10.104;2023-08-12T00:57:46;23.30;99.90
11221;DHT22;8517;53.546;10.104;2023-08-12T01:00:14;23.20;99.90
11221;DHT22;8517;53.546;10.104;2023-08-12T01:02:44;23.30;99.90
11221;DHT22;8517;53.546;10.104;2023-08-12T01:05:15;23.20;99.90
11221;DHT22;8517;53.546;10.104;2023-08-12T01:07:42;23.20;99.90
11221;DHT22;8517;53.546;10.104;2023-08-12T01:10:10;23.20;99.90
11221;DHT22;8517;53.546;10.104;2023-08-12T01:12:47;23.20;99.90
11221;DHT22;8517;53.546;10.104;2023-08-12T01:15:17;23.20;99.90
11221;DHT22;8517;53.546;10.104;2023-08-12T01:17:47;23.20;99.90
11221;DHT22;8517;53.546;10.104;2023-08-12T01:20:20;23.10;99.90
11221;DHT22;8517;53.546;10.104;2023-08-12T01:22:55;23.10;99.90
11221;DHT22;8517;53.546;10.104;2023-08-12T01:25:24;23.10;99.90
11221;DHT22;8517;53.546;10.104;2023-08-12T01:27:51;23.10;99.90
11221;DHT22;8517;53.546;10.104;2023-08-12T01:30:18;23.10;99.90
11221;DHT22;8517;53.546;10.104;2023-08-12T01:32:53;23.10;99.90
11221;DHT22;8517;53.546;10.104;2023-08-12T01:35:24;23.10;99.90
11221;DHT22;8517;53.546;10.104;2023-08-12T01:37:53;23.10;99.90
11221;DHT22;8517;53.546;10.104;2023-08-12T01:40:24;23.00;99.90
11221;DHT22;8517;53.546;10.104;2023-08-12T01:42:52;23.00;99.90
11221;DHT22;8517;53.546;10.104;2023-08-12T01:45:19;23.00;99.90
11221;DHT22;8517;53.546;10.104;2023-08-12T01:47:45;23.00;99.90
11221;DHT22;8517;53.546;10.104;2023-08-12T01:50:15;23.00;99.90
11221;DHT22;8517;53.546;10.104;2023-08-12T01:52:42;23.00;99.90
11221;DHT22;8517;53.546;10.104;2023-08-12T01:55:09;23.00;99.90
11221;DHT22;8517;53.546;10.104;2023-08-12T01:57:37;22.90;99.90
11221;DHT22;8517;53.546;10.104;2023-08-12T02:00:05;22.90;99.90
11221;DHT22;8517;53.546;10.104;2023-08-12T02:02:32;22.90;99.90
11221;DHT22;8517;53.546;10.104;2023-08-12T02:04:59;22.80;99.90
11221;DHT22;8517;53.546;10.104;2023-08-12T02:07:26;22.80;99.90
11221;DHT22;8517;53.546;10.104;2023-08-12T02:09:52;22.80;99.90
11221;DHT22;8517;53.546;10.104;2023-08-12T02:12:19;22.80;99.90
11221;DHT22;8517;53.546;10.104;2023-08-12T02:14:47;22.80;99.90
11221;DHT22;8517;53.546;10.104;2023-08-12T02:17:14;22.80;99.90
11221;DHT22;8517;53.546;10.104;2023-08-12T02:19:41;22.70;99.90
11221;DHT22;8517;53.546;10.104;2023-08-12T02:22:08;22.70;99.90
11221;DHT22;8517;53.546;10.104;2023-08-12T02:24:35;22.70;99.90
11221;DHT22;8517;53.546;10.104;2023-08-12T02:27:02;22.70;99.90
11221;DHT22;8517;53.546;10.104;2023-08-12T02:29:29;22.70;99.90
11221;DHT22;8517;53.546;10.104;2023-08-12T02:31:57;22.70;99.90
11221;DHT22;8517;53.546;10.104;2023-08-12T02:34:24;22.60;99.90
11221;DHT22;8517;53.546;10.104;2023-08-12T02:36:51;22.70;99.90
11221;DHT22;8517;53.546;10.104;2023-08-12T02:39:18;22.60;99.90
11221;DHT22;8517;53.546;10.104;2023-08-12T02:41:45;22.60;99.90
11221;DHT22;8517;53.546;10.104;2023-08-12T02:44:12;22.60;99.90
11221;DHT22;8517;53.546;10.104;2023-08-12T02:46:39;22.60;99.90
11221;DHT22;8517;53.546;10.104;2023-08-12T02:49:07;22.50;99.90
11221;DHT22;8517;53.546;10.104;2023-08-12T02:51:33;22.50;99.90
11221;DHT22;8517;53.546;10.104;2023-08-12T02:54:00;22.50;99.90
11221;DHT22;8517;53.546;10.104;2023-08-12T02:56:27;22.50;99.90
11221;DHT22;8517;53.546;10.104;2023-08-12T02:58:54;22.40;99.90
11221;DHT22;8517;53.546;10.104;2023-08-12T03:01:21;22.40;99.90
11221;DHT22;8517;53.546;10.104;2023-08-12T03:03:48;22.40;99.90
11221;DHT22;8517;53.546;10.104;2023-08-12T03:06:16;22.50;99.90
11221;DHT22;8517;53.546;10.104;2023-08-12T03:08:43;22.40;99.90
11221;DHT22;8517;53.546;10.104;2023-08-12T03:11:10;22.40;99.90
11221;DHT22;8517;53.546;10.104;2023-08-12T03:13:36;22.40;99.90
11221;DHT22;8517;53.546;10.104;2023-08-12T03:16:03;22.30;99.90
11221;DHT22;8517;53.546;10.104;2023-08-12T03:18:30;22.30;99.90
11221;DHT22;8517;53.546;10.104;2023-08-12T03:20:57;22.30;99.90
11221;DHT22;8517;53.546;10.104;2023-08-12T03:23:25;22.30;99.90
11221;DHT22;8517;53.546;10.104;2023-08-12T03:25:52;22.40;99.90
11221;DHT22;8517;53.546;10.104;2023-08-12T03:28:18;22.40;99.90
11221;DHT22;8517;53.546;10.104;2023-08-12T03:30:50;22.40;99.90
11221;DHT22;8517;53.546;10.104;2023-08-12T03:33:17;22.40;99.90
11221;DHT22;8517;53.546;10.104;2023-08-12T03:35:45;22.30;99.90
11221;DHT22;8517;53.546;10.104;2023-08-12T03:38:12;22.30;99.90
11221;DHT22;8517;53.546;10.104;2023-08-12T03:40:40;22.30;99.90
11221;DHT22;8517;53.546;10.104;2023-08-12T03:43:07;22.40;99.90
11221;DHT22;8517;53.546;10.104;2023-08-12T03:45:39;22.40;99.90
11221;DHT22;8517;53.546;10.104;2023-08-12T03:48:06;22.30;99.90
11221;DHT22;8517;53.546;10.104;2023-08-12T03:50:33;22.30;99.90
11221;DHT22;8517;53.546;10.104;2023-08-12T03:53:00;22.20;99.90
11221;DHT22;8517;53.546;10.104;2023-08-12T03:55:27;22.20;99.90
11221;DHT22;8517;53.546;10.104;2023-08-12T03:57:57;22.20;99.90
11221;DHT22;8517;53.546;10.104;2023-08-12T04:00:24;22.10;99.90
11221;DHT22;8517;53.546;10.104;2023-08-12T04:02:51;22.10;99.90
11221;DHT22;8517;53.546;10.104;2023-08-12T04:05:18;22.10;99.90
11221;DHT22;8517;53.546;10.104;2023-08-12T04:07:44;22.10;99.90
11221;DHT22;8517;53.546;10.104;2023-08-12T04:10:11;22.10;99.90
11221;DHT22;8517;53.546;10.104;2023-08-12T04:12:39;22.10;99.90
11221;DHT22;8517;53.546;10.104;2023-08-12T04:15:09;22.00;99.90
11221;DHT22;8517;53.546;10.104;2023-08-12T04:17:36;22.00;99.90
11221;DHT22;8517;53.546;10.104;2023-08-12T04:20:06;22.00;99.90
11221;DHT22;8517;53.546;10.104;2023-08-12T04:22:33;22.00;99.90
11221;DHT22;8517;53.546;10.104;2023-08-12T04:25:00;22.00;99.90
11221;DHT22;8517;53.546;10.104;2023-08-12T04:27:26;22.00;99.90
11221;DHT22;8517;53.546;10.104;2023-08-12T04:29:53;22.00;99.90
11221;DHT22;8517;53.546;10.104;2023-08-12T04:32:21;22.00;99.90
11221;DHT22;8517;53.546;10.104;2023-08-12T04:34:48;22.00;99.90
11221;DHT22;8517;53.546;10.104;2023-08-12T04:37:15;22.00;99.90
11221;DHT22;8517;53.546;10.104;2023-08-12T04:39:42;22.00;99.90
11221;DHT22;8517;53.546;10.104;2023-08-12T04:42:09;21.90;99.90
11221;DHT22;8517;53.546;10.104;2023-08-12T04:44:35;21.90;99.90
11221;DHT22;8517;53.546;10.104;2023-08-12T04:47:02;21.90;99.90
11221;DHT22;8517;53.546;10.104;2023-08-12T04:49:30;21.90;99.90
11221;DHT22;8517;53.546;10.104;2023-08-12T04:51:57;21.90;99.90
11221;DHT22;8517;53.546;10.104;2023-08-12T04:54:24;21.90;99.90
11221;DHT22;8517;53.546;10.104;2023-08-12T04:56:51;22.00;99.90
11221;DHT22;8517;53.546;10.104;2023-08-12T04:59:17;21.90;99.90
11221;DHT22;8517;53.546;10.104;2023-08-12T05:01:44;21.90;99.90
11221;DHT22;8517;53.546;10.104;2023-08-12T05:04:11;22.00;99.90
11221;DHT22;8517;53.546;10.104;2023-08-12T05:06:39;22.00;99.90
11221;DHT22;8517;53.546;10.104;2023-08-12T05:09:06;21.90;99.90
11221;DHT22;8517;53.546;10.104;2023-08-12T05:11:33;22.00;99.90
11221;DHT22;8517;53.546;10.104;2023-08-12T05:14:00;22.00;99.90
11221;DHT22;8517;53.546;10.104;2023-08-12T05:16:27;22.00;99.90
11221;DHT22;8517;53.546;10.104;2023-08-12T05:18:54;22.00;99.90
11221;DHT22;8517;53.546;10.104;2023-08-12T05:21:21;22.00;99.90
11221;DHT22;8517;53.546;10.104;2023-08-12T05:23:49;22.00;99.90
11221;DHT22;8517;53.546;10.104;2023-08-12T05:26:16;22.00;99.90
11221;DHT22;8517;53.546;10.104;2023-08-12T05:28:43;22.00;99.90
11221;DHT22;8517;53.546;10.104;2023-08-12T05:31:09;22.00;99.90
11221;DHT22;8517;53.546;10.104;2023-08-12T05:33:36;22.10;99.90
11221;DHT22;8517;53.546;10.104;2023-08-12T05:36:03;22.10;99.90
11221;DHT22;8517;53.546;10.104;2023-08-12T05:38:30;22.10;99.90
11221;DHT22;8517;53.546;10.104;2023-08-12T05:40:58;22.10;99.90
11221;DHT22;8517;53.546;10.104;2023-08-12T05:43:25;22.10;99.90
11221;DHT22;8517;53.546;10.104;2023-08-12T05:45:52;22.10;99.90
11221;DHT22;8517;53.546;10.104;2023-08-12T05:48:19;22.10;99.90
11221;DHT22;8517;53.546;10.104;2023-08-12T05:50:45;22.10;99.90
11221;DHT22;8517;53.546;10.104;2023-08-12T05:53:12;22.10;99.90
11221;DHT22;8517;53.546;10.104;2023-08-12T05:55:39;22.00;99.90
11221;DHT22;8517;53.546;10.104;2023-08-12T05:58:07;22.00;99.90
11221;DHT22;8517;53.546;10.104;2023-08-12T06:00:34;22.00;99.90
11221;DHT22;8517;53.546;10.104;2023-08-12T06:03:01;22.00;99.90
11221;DHT22;8517;53.546;10.104;2023-08-12T06:05:28;22.00;99.90
11221;DHT22;8517;53.546;10.104;2023-08-12T06:07:55;22.00;99.90
11221;DHT22;8517;53.546;10.104;2023-08-12T06:10:21;22.00;99.90
11221;DHT22;8517;53.546;10.104;2023-08-12T06:12:48;21.90;99.90
11221;DHT22;8517;53.546;10.104;2023-08-12T06:15:16;21.90;99.90
11221;DHT22;8517;53.546;10.104;2023-08-12T06:17:43;21.80;99.90
11221;DHT22;8517;53.546;10.104;2023-08-12T06:20:12;21.80;99.90
11221;DHT22;8517;53.546;10.104;2023-08-12T06:22:38;21.80;99.90
11221;DHT22;8517;53.546;10.104;2023-08-12T06:25:06;21.80;99.90
11221;DHT22;8517;53.546;10.104;2023-08-12T06:27:32;21.70;99.90
11221;DHT22;8517;53.546;10.104;2023-08-12T06:29:59;21.70;99.90
11221;DHT22;8517;53.546;10.104;2023-08-12T06:32:27;21.70;99.90
11221;DHT22;8517;53.546;10.104;2023-08-12T06:34:54;21.70;99.90
11221;DHT22;8517;53.546;10.104;2023-08-12T06:37:21;21.60;99.90
11221;DHT22;8517;53.546;10.104;2023-08-12T06:39:48;21.70;99.90
11221;DHT22;8517;53.546;10.104;2023-08-12T06:42:15;21.60;99.90
11221;DHT22;8517;53.546;10.104;2023-08-12T06:44:41;21.60;99.90
11221;DHT22;8517;53.546;10.104;2023-08-12T06:47:08;21.60;99.90
11221;DHT22;8517;53.546;10.104;2023-08-12T06:49:36;21.60;99.90
11221;DHT22;8517;53.546;10.104;2023-08-12T06:52:03;21.60;99.90
11221;DHT22;8517;53.546;10.104;2023-08-12T06:54:33;21.60;99.90
11221;DHT22;8517;53.546;10.104;2023-08-12T06:56:59;21.50;99.90
11221;DHT22;8517;53.546;10.104;2023-08-12T06:59:26;21.60;99.90
11221;DHT22;8517;53.546;10.104;2023-08-12T07:01:53;21.60;99.90
11221;DHT22;8517;53.546;10.104;2023-08-12T07:04:20;21.50;99.90
11221;DHT22;8517;53.546;10.104;2023-08-12T07:06:48;21.50;99.90
11221;DHT22;8517;53.546;10.104;2023-08-12T07:09:15;21.60;99.90
11221;DHT22;8517;53.546;10.104;2023-08-12T07:11:41;21.60;99.90
11221;DHT22;8517;53.546;10.104;2023-08-12T07:14:08;21.60;99.90
11221;DHT22;8517;53.546;10.104;2023-08-12T07:16:35;21.60;99.90
11221;DHT22;8517;53.546;10.104;2023-08-12T07:19:02;21.60;99.90
11221;DHT22;8517;53.546;10.104;2023-08-12T07:21:29;21.60;99.90
11221;DHT22;8517;53.546;10.104;2023-08-12T07:23:57;21.70;99.90
11221;DHT22;8517;53.546;10.104;2023-08-12T07:26:24;21.70;99.90
11221;DHT22;8517;53.546;10.104;2023-08-12T07:28:50;21.80;99.90
11221;DHT22;8517;53.546;10.104;2023-08-12T07:31:17;21.80;99.90
11221;DHT22;8517;53.546;10.104;2023-08-12T07:33:44;21.80;99.90
11221;DHT22;8517;53.546;10.104;2023-08-12T07:36:11;21.80;99.90
11221;DHT22;8517;53.546;10.104;2023-08-12T07:38:39;21.90;99.90
11221;DHT22;8517;53.546;10.104;2023-08-12T07:41:07;21.90;99.90
11221;DHT22;8517;53.546;10.104;2023-08-12T07:43:33;21.90;99.90
11221;DHT22;8517;53.546;10.104;2023-08-12T07:46:00;21.90;99.90
11221;DHT22;8517;53.546;10.104;2023-08-12T07:48:27;21.90;99.90
11221;DHT22;8517;53.546;10.104;2023-08-12T07:50:57;22.00;99.90
11221;DHT22;8517;53.546;10.104;2023-08-12T07:53:24;22.00;99.90
11221;DHT22;8517;53.546;10.104;2023-08-12T07:55:51;22.00;99.90
11221;DHT22;8517;53.546;10.104;2023-08-12T07:58:19;22.10;99.90
11221;DHT22;8517;53.546;10.104;2023-08-12T08:00:46;22.10;99.90
11221;DHT22;8517;53.546;10.104;2023-08-12T08:03:13;22.10;99.90
11221;DHT22;8517;53.546;10.104;2023-08-12T08:05:40;22.20;99.90
11221;DHT22;8517;53.546;10.104;2023-08-12T08:08:07;22.20;99.90
11221;DHT22;8517;53.546;10.104;2023-08-12T08:10:34;22.20;99.90
11221;DHT22;8517;53.546;10.104;2023-08-12T08:13:01;22.30;99.90
11221;DHT22;8517;53.546;10.104;2023-08-12T08:15:29;22.30;99.90
11221;DHT22;8517;53.546;10.104;2023-08-12T08:17:56;22.30;99.90
11221;DHT22;8517;53.546;10.104;2023-08-12T08:20:22;22.30;99.90
11221;DHT22;8517;53.546;10.104;2023-08-12T08:22:49;22.30;99.90
11221;DHT22;8517;53.546;10.104;2023-08-12T08:25:17;22.40;99.90
11221;DHT22;8517;53.546;10.104;2023-08-12T08:27:43;22.50;99.90
11221;DHT22;8517;53.546;10.104;2023-08-12T08:30:11;22.50;99.90
11221;DHT22;8517;53.546;10.104;2023-08-12T08:32:40;22.50;99.90
11221;DHT22;8517;53.546;10.104;2023-08-12T08:35:07;22.50;99.90
11221;DHT22;8517;53.546;10.104;2023-08-12T08:37:33;22.50;99.90
11221;DHT22;8517;53.546;10.104;2023-08-12T08:40:00;22.60;99.90
11221;DHT22;8517;53.546;10.104;2023-08-12T08:42:28;22.70;99.90
11221;DHT22;8517;53.546;10.104;2023-08-12T08:44:58;22.70;99.90
11221;DHT22;8517;53.546;10.104;2023-08-12T08:47:27;22.80;99.90
11221;DHT22;8517;53.546;10.104;2023-08-12T08:49:56;22.80;99.90
11221;DHT22;8517;53.546;10.104;2023-08-12T08:52:24;22.80;99.90
11221;DHT22;8517;53.546;10.104;2023-08-12T08:54:51;22.90;99.90
11221;DHT22;8517;53.546;10.104;2023-08-12T08:57:18;22.90;99.90
11221;DHT22;8517;53.546;10.104;2023-08-12T08:59:45;22.90;99.90
11221;DHT22;8517;53.546;10.104;2023-08-12T09:02:16;23.00;99.90
11221;DHT22;8517;53.546;10.104;2023-08-12T09:04:43;23.10;99.90
11221;DHT22;8517;53.546;10.104;2023-08-12T09:07:13;23.10;99.90
11221;DHT22;8517;53.546;10.104;2023-08-12T09:09:42;23.20;99.90
11221;DHT22;8517;53.546;10.104;2023-08-12T09:12:11;23.20;99.90
11221;DHT22;8517;53.546;10.104;2023-08-12T09:14:40;23.30;99.90
11221;DHT22;8517;53.546;10.104;2023-08-12T09:17:07;23.30;99.90
11221;DHT22;8517;53.546;10.104;2023-08-12T09:19:33;23.40;99.90
11221;DHT22;8517;53.546;10.104;2023-08-12T09:22:03;23.40;99.90
11221;DHT22;8517;53.546;10.104;2023-08-12T09:24:31;23.50;99.90
11221;DHT22;8517;53.546;10.104;2023-08-12T09:26:58;23.60;99.90
11221;DHT22;8517;53.546;10.104;2023-08-12T09:29:29;23.60;99.90
11221;DHT22;8517;53.546;10.104;2023-08-12T09:32:05;23.60;99.90
11221;DHT22;8517;53.546;10.104;2023-08-12T09:34:32;23.70;99.90
11221;DHT22;8517;53.546;10.104;2023-08-12T09:36:59;23.70;99.90
11221;DHT22;8517;53.546;10.104;2023-08-12T09:39:26;23.70;99.90
11221;DHT22;8517;53.546;10.104;2023-08-12T09:41:54;23.80;99.90
11221;DHT22;8517;53.546;10.104;2023-08-12T09:44:21;23.90;99.90
11221;DHT22;8517;53.546;10.104;2023-08-12T09:46:48;23.90;99.90
11221;DHT22;8517;53.546;10.104;2023-08-12T09:49:22;23.90;99.90
11221;DHT22;8517;53.546;10.104;2023-08-12T09:51:50;24.00;99.90
11221;DHT22;8517;53.546;10.104;2023-08-12T09:54:18;24.00;99.90
11221;DHT22;8517;53.546;10.104;2023-08-12T09:56:47;24.00;99.90
11221;DHT22;8517;53.546;10.104;2023-08-12T09:59:19;24.00;99.90
11221;DHT22;8517;53.546;10.104;2023-08-12T10:01:47;24.00;99.90
11221;DHT22;8517;53.546;10.104;2023-08-12T10:04:17;24.10;99.90
11221;DHT22;8517;53.546;10.104;2023-08-12T10:06:47;24.10;99.90
11221;DHT22;8517;53.546;10.104;2023-08-12T10:09:15;24.10;99.90
11221;DHT22;8517;53.546;10.104;2023-08-12T10:11:43;24.10;99.90
11221;DHT22;8517;53.546;10.104;2023-08-12T10:14:10;24.10;99.90
11221;DHT22;8517;53.546;10.104;2023-08-12T10:16:39;24.10;99.90
11221;DHT22;8517;53.546;10.104;2023-08-12T10:19:06;24.00;99.90
11221;DHT22;8517;53.546;10.104;2023-08-12T10:21:37;24.00;99.90
11221;DHT22;8517;53.546;10.104;2023-08-12T10:24:05;24.00;99.90
11221;DHT22;8517;53.546;10.104;2023-08-12T10:26:33;24.10;99.90
11221;DHT22;8517;53.546;10.104;2023-08-12T10:29:00;24.10;99.90
11221;DHT22;8517;53.546;10.104;2023-08-12T10:31:53;24.20;99.90
11221;DHT22;8517;53.546;10.104;2023-08-12T10:34:21;24.30;99.90
11221;DHT22;8517;53.546;10.104;2023-08-12T10:36:48;24.40;99.90
11221;DHT22;8517;53.546;10.104;2023-08-12T10:39:15;24.50;99.90
11221;DHT22;8517;53.546;10.104;2023-08-12T10:41:50;24.60;99.90
11221;DHT22;8517;53.546;10.104;2023-08-12T10:44:20;24.70;99.90
11221;DHT22;8517;53.546;10.104;2023-08-12T10:46:50;24.80;99.90
11221;DHT22;8517;53.546;10.104;2023-08-12T10:49:19;24.80;99.90
11221;DHT22;8517;53.546;10.104;2023-08-12T10:51:47;24.90;99.90
11221;DHT22;8517;53.546;10.104;2023-08-12T10:54:16;24.90;99.90
11221;DHT22;8517;53.546;10.104;2023-08-12T10:57:05;24.90;99.90
11221;DHT22;8517;53.546;10.104;2023-08-12T10:59:53;25.00;99.90
11221;DHT22;8517;53.546;10.104;2023-08-12T11:02:22;25.00;99.90
11221;DHT22;8517;53.546;10.104;2023-08-12T11:04:52;25.00;99.90
11221;DHT22;8517;53.546;10.104;2023-08-12T11:07:20;25.10;99.90
11221;DHT22;8517;53.546;10.104;2023-08-12T11:09:51;25.10;99.90
11221;DHT22;8517;53.546;10.104;2023-08-12T11:12:28;25.20;99.90
11221;DHT22;8517;53.546;10.104;2023-08-12T11:14:58;25.30;99.90
11221;DHT22;8517;53.546;10.104;2023-08-12T11:17:32;25.50;99.90
11221;DHT22;8517;53.546;10.104;2023-08-12T11:20:01;25.50;99.90
11221;DHT22;8517;53.546;10.104;2023-08-12T11:22:31;25.60;99.90
11221;DHT22;8517;53.546;10.104;2023-08-12T11:24:58;25.70;99.90
11221;DHT22;8517;53.546;10.104;2023-08-12T11:27:26;25.80;99.90
11221;DHT22;8517;53.546;10.104;2023-08-12T11:29:53;25.80;99.90
11221;DHT22;8517;53.546;10.104;2023-08-12T11:32:19;25.80;99.90
11221;DHT22;8517;53.546;10.104;2023-08-12T11:34:47;25.90;99.90
11221;DHT22;8517;53.546;10.104;2023-08-12T11:37:15;25.80;99.90
11221;DHT22;8517;53.546;10.104;2023-08-12T11:39:42;25.80;99.90
11221;DHT22;8517;53.546;10.104;2023-08-12T11:42:09;25.80;99.90
11221;DHT22;8517;53.546;10.104;2023-08-12T11:44:36;25.70;99.90
11221;DHT22;8517;53.546;10.104;2023-08-12T11:47:03;25.70;99.90
11221;DHT22;8517;53.546;10.104;2023-08-12T11:49:30;25.60;99.90
11221;DHT22;8517;53.546;10.104;2023-08-12T11:51:56;25.50;99.90
11221;DHT22;8517;53.546;10.104;2023-08-12T11:54:26;25.50;99.90
11221;DHT22;8517;53.546;10.104;2023-08-12T11:56:53;25.50;99.90
11221;DHT22;8517;53.546;10.104;2023-08-12T11:59:23;25.50;99.90
11221;DHT22;8517;53.546;10.104;2023-08-12T12:01:52;25.40;99.90
11221;DHT22;8517;53.546;10.104;2023-08-12T12:04:21;25.40;99.90
11221;DHT22;8517;53.546;10.104;2023-08-12T12:06:48;25.30;99.90
11221;DHT22;8517;53.546;10.104;2023-08-12T12:09:15;25.20;99.90
11221;DHT22;8517;53.546;10.104;2023-08-12T12:11:47;25.20;99.90
11221;DHT22;8517;53.546;10.104;2023-08-12T12:14:20;25.20;99.90
11221;DHT22;8517;53.546;10.104;2023-08-12T12:16:48;25.10;99.90
11221;DHT22;8517;53.546;10.104;2023-08-12T12:19:19;25.00;99.90
11221;DHT22;8517;53.546;10.104;2023-08-12T12:21:47;24.90;99.90
11221;DHT22;8517;53.546;10.104;2023-08-12T12:24:14;24.90;99.90
11221;DHT22;8517;53.546;10.104;2023-08-12T12:26:41;24.80;99.90
11221;DHT22;8517;53.546;10.104;2023-08-12T12:29:10;24.70;99.90
11221;DHT22;8517;53.546;10.104;2023-08-12T12:31:38;24.60;99.90
11221;DHT22;8517;53.546;10.104;2023-08-12T12:34:06;24.50;99.90
11221;DHT22;8517;53.546;10.104;2023-08-12T12:36:36;24.40;99.90
11221;DHT22;8517;53.546;10.104;2023-08-12T12:39:03;24.40;99.90
11221;DHT22;8517;53.546;10.104;2023-08-12T12:41:31;24.30;99.90
11221;DHT22;8517;53.546;10.104;2023-08-12T12:43:59;24.20;99.90
11221;DHT22;8517;53.546;10.104;2023-08-12T12:46:27;24.20;99.90
11221;DHT22;8517;53.546;10.104;2023-08-12T12:48:54;24.20;99.90
11221;DHT22;8517;53.546;10.104;2023-08-12T12:51:21;24.20;99.90
11221;DHT22;8517;53.546;10.104;2023-08-12T12:53:48;24.20;99.90
11221;DHT22;8517;53.546;10.104;2023-08-12T12:56:15;24.20;99.90
11221;DHT22;8517;53.546;10.104;2023-08-12T12:58:41;24.20;99.90
11221;DHT22;8517;53.546;10.104;2023-08-12T13:01:08;24.20;99.90
11221;DHT22;8517;53.546;10.104;2023-08-12T13:03:36;24.20;99.90
11221;DHT22;8517;53.546;10.104;2023-08-12T13:06:03;24.20;99.90
11221;DHT22;8517;53.546;10.104;2023-08-12T13:08:30;24.20;99.90
11221;DHT22;8517;53.546;10.104;2023-08-12T13:10:57;24.20;99.90
11221;DHT22;8517;53.546;10.104;2023-08-12T13:13:24;24.10;99.90
11221;DHT22;8517;53.546;10.104;2023-08-12T13:15:51;24.20;99.90
11221;DHT22;8517;53.546;10.104;2023-08-12T13:18:18;24.10;99.90
11221;DHT22;8517;53.546;10.104;2023-08-12T13:20:49;24.10;99.90
11221;DHT22;8517;53.546;10.104;2023-08-12T13:23:15;24.00;99.90
11221;DHT22;8517;53.546;10.104;2023-08-12T13:25:42;24.00;99.90
11221;DHT22;8517;53.546;10.104;2023-08-12T13:28:09;23.90;99.90
11221;DHT22;8517;53.546;10.104;2023-08-12T13:30:36;23.90;99.90
11221;DHT22;8517;53.546;10.104;2023-08-12T13:33:03;23.90;99.90
11221;DHT22;8517;53.546;10.104;2023-08-12T13:35:30;23.90;99.90
11221;DHT22;8517;53.546;10.104;2023-08-12T13:37:58;23.80;99.90
11221;DHT22;8517;53.546;10.104;2023-08-12T13:40:27;23.80;99.90
11221;DHT22;8517;53.546;10.104;2023-08-12T13:42:54;23.80;99.90
11221;DHT22;8517;53.546;10.104;2023-08-12T13:45:20;23.70;99.90
11221;DHT22;8517;53.546;10.104;2023-08-12T13:47:47;23.70;99.90
11221;DHT22;8517;53.546;10.104;2023-08-12T13:50:14;23.70;99.90
11221;DHT22;8517;53.546;10.104;2023-08-12T13:52:41;23.70;99.90
11221;DHT22;8517;53.546;10.104;2023-08-12T13:55:09;23.60;99.90
11221;DHT22;8517;53.546;10.104;2023-08-12T13:57:36;23.60;99.90
11221;DHT22;8517;53.546;10.104;2023-08-12T14:00:04;23.60;99.90
11221;DHT22;8517;53.546;10.104;2023-08-12T14:02:35;23.50;99.90
11221;DHT22;8517;53.546;10.104;2023-08-12T14:05:02;23.50;99.90
11221;DHT22;8517;53.546;10.104;2023-08-12T14:07:30;23.40;99.90
11221;DHT22;8517;53.546;10.104;2023-08-12T14:09:57;23.40;99.90
11221;DHT22;8517;53.546;10.104;2023-08-12T14:12:25;23.40;99.90
11221;DHT22;8517;53.546;10.104;2023-08-12T14:14:52;23.50;99.90
11221;DHT22;8517;53.546;10.104;2023-08-12T14:17:19;23.50;99.90
11221;DHT22;8517;53.546;10.104;2023-08-12T14:19:49;23.50;99.90
11221;DHT22;8517;53.546;10.104;2023-08-12T14:22:16;23.60;99.90
11221;DHT22;8517;53.546;10.104;2023-08-12T14:24:42;23.60;99.90
11221;DHT22;8517;53.546;10.104;2023-08-12T14:27:10;23.60;99.90
11221;DHT22;8517;53.546;10.104;2023-08-12T14:29:39;23.60;99.90
11221;DHT22;8517;53.546;10.104;2023-08-12T14:32:06;23.70;99.90
11221;DHT22;8517;53.546;10.104;2023-08-12T14:34:32;23.60;99.90
11221;DHT22;8517;53.546;10.104;2023-08-12T14:36:59;23.70;99.90
11221;DHT22;8517;53.546;10.104;2023-08-12T14:39:26;23.70;99.90
11221;DHT22;8517;53.546;10.104;2023-08-12T14:41:53;23.70;99.90
11221;DHT22;8517;53.546;10.104;2023-08-12T14:44:20;23.60;99.90
11221;DHT22;8517;53.546;10.104;2023-08-12T14:46:48;23.60;99.90
11221;DHT22;8517;53.546;10.104;2023-08-12T14:49:15;23.60;99.90
11221;DHT22;8517;53.546;10.104;2023-08-12T14:51:42;23.60;99.90
11221;DHT22;8517;53.546;10.104;2023-08-12T14:54:09;23.60;99.90
11221;DHT22;8517;53.546;10.104;2023-08-12T14:56:35;23.50;99.90
11221;DHT22;8517;53.546;10.104;2023-08-12T14:59:03;23.50;99.90
11221;DHT22;8517;53.546;10.104;2023-08-12T15:01:30;23.50;99.90
11221;DHT22;8517;53.546;10.104;2023-08-12T15:03:59;23.50;99.90
11221;DHT22;8517;53.546;10.104;2023-08-12T15:06:25;23.50;99.90
11221;DHT22;8517;53.546;10.104;2023-08-12T15:08:53;23.50;99.90
11221;DHT22;8517;53.546;10.104;2023-08-12T15:11:20;23.50;99.90
11221;DHT22;8517;53.546;10.104;2023-08-12T15:13:48;23.50;99.90
11221;DHT22;8517;53.546;10.104;2023-08-12T15:16:14;23.50;99.90
11221;DHT22;8517;53.546;10.104;2023-08-12T15:18:41;23.50;99.90
11221;DHT22;8517;53.546;10.104;2023-08-12T15:21:09;23.60;99.90
11221;DHT22;8517;53.546;10.104;2023-08-12T15:23:36;23.60;99.90
11221;DHT22;8517;53.546;10.104;2023-08-12T15:26:03;23.70;99.90
11221;DHT22;8517;53.546;10.104;2023-08-12T15:28:30;23.70;99.90
11221;DHT22;8517;53.546;10.104;2023-08-12T15:30:56;23.70;99.90
11221;DHT22;8517;53.546;10.104;2023-08-12T15:33:23;23.80;99.90